createdAt,value
2018-08-13T00:00:52.094Z,3.30
2018-08-13T00:03:19.914Z,3.17
2018-08-13T00:05:47.818Z,3.00
2018-08-13T00:08:16.629Z,3.20
2018-08-13T00:10:44.512Z,3.30
2018-08-13T00:13:12.349Z,3.17
2018-08-13T00:15:40.231Z,3.63
2018-08-13T00:18:08.725Z,3.30
2018-08-13T00:20:36.633Z,3.17
2018-08-13T00:23:04.448Z,3.20
2018-08-13T00:25:32.377Z,3.67
2018-08-13T00:28:00.245Z,3.57
2018-08-13T00:30:28.117Z,4.00
2018-08-13T00:32:55.953Z,3.63
2018-08-13T00:35:23.929Z,3.40
2018-08-13T00:37:51.734Z,3.47
2018-08-13T00:40:19.633Z,3.60
2018-08-13T00:42:47.441Z,3.40
2018-08-13T00:45:15.261Z,3.70
2018-08-13T00:47:43.289Z,4.07
2018-08-13T00:50:12.721Z,3.40
2018-08-13T00:52:40.925Z,3.70
2018-08-13T00:55:10.550Z,3.57
2018-08-13T00:57:38.781Z,3.30
2018-08-13T01:00:15.440Z,3.53
2018-08-13T01:02:44.049Z,3.20
2018-08-13T01:05:12.206Z,3.67
2018-08-13T01:07:40.041Z,3.63
2018-08-13T01:10:09.196Z,3.83
2018-08-13T01:12:37.049Z,3.60
2018-08-13T01:15:05.518Z,3.50
2018-08-13T01:17:33.338Z,3.47
2018-08-13T01:20:01.254Z,3.80
2018-08-13T01:22:29.069Z,3.73
2018-08-13T01:24:56.893Z,3.83
2018-08-13T01:27:31.133Z,4.00
2018-08-13T01:29:59.901Z,3.53
2018-08-13T01:32:28.093Z,3.93
2018-08-13T01:34:55.952Z,3.23
2018-08-13T01:37:23.966Z,3.90
2018-08-13T01:39:51.994Z,4.30
2018-08-13T01:42:19.839Z,3.60
2018-08-13T01:44:47.670Z,4.10
2018-08-13T01:47:15.464Z,3.10
2018-08-13T01:49:43.309Z,3.73
2018-08-13T01:52:11.138Z,4.33
2018-08-13T01:54:38.953Z,4.13
2018-08-13T01:57:06.765Z,3.47
2018-08-13T01:59:34.611Z,3.77
2018-08-13T02:02:02.470Z,3.90
2018-08-13T02:04:30.373Z,3.57
2018-08-13T02:06:58.177Z,4.00
2018-08-13T02:09:37.437Z,3.67
2018-08-13T02:12:05.670Z,3.70
2018-08-13T02:14:33.568Z,4.13
2018-08-13T02:17:01.702Z,4.57
2018-08-13T02:19:30.938Z,3.83
2018-08-13T02:21:58.813Z,3.30
2018-08-13T02:24:27.125Z,3.53
2018-08-13T02:26:55.269Z,3.70
2018-08-13T02:29:23.622Z,4.23
2018-08-13T02:31:51.439Z,3.67
2018-08-13T02:34:19.510Z,3.50
2018-08-13T02:36:47.417Z,3.93
2018-08-13T02:39:15.315Z,3.57
2018-08-13T02:41:43.061Z,4.30
2018-08-13T02:44:10.866Z,4.23
2018-08-13T02:46:38.698Z,3.53
2018-08-13T02:49:06.546Z,4.90
2018-08-13T02:51:35.162Z,3.93
2018-08-13T02:54:03.670Z,4.30
2018-08-13T02:56:31.487Z,4.20
2018-08-13T02:58:59.558Z,4.53
2018-08-13T03:01:27.501Z,4.10
2018-08-13T03:03:55.346Z,4.07
2018-08-13T03:06:23.222Z,4.60
2018-08-13T03:08:51.047Z,4.40
2018-08-13T03:11:19.046Z,4.50
2018-08-13T03:13:47.008Z,4.60
2018-08-13T03:16:14.931Z,4.40
2018-08-13T03:18:43.115Z,5.27
2018-08-13T03:21:11.147Z,4.60
2018-08-13T03:23:39.079Z,4.23
2018-08-13T03:26:07.185Z,4.17
2018-08-13T03:28:34.998Z,5.10
2018-08-13T03:31:02.825Z,5.20
2018-08-13T03:33:30.635Z,5.07
2018-08-13T03:35:58.474Z,4.80
2018-08-13T03:38:26.429Z,5.03
2018-08-13T03:40:54.249Z,4.80
2018-08-13T03:43:22.058Z,5.07
2018-08-13T03:45:50.189Z,5.30
2018-08-13T03:48:17.996Z,6.27
2018-08-13T03:50:45.818Z,6.13
2018-08-13T03:53:13.629Z,5.73
2018-08-13T03:55:41.438Z,5.50
2018-08-13T03:58:09.240Z,6.13
2018-08-13T04:00:37.058Z,5.40
2018-08-13T04:03:05.626Z,6.37
2018-08-13T04:05:33.453Z,5.70
2018-08-13T04:08:01.260Z,5.70
2018-08-13T04:10:29.078Z,5.80
2018-08-13T04:12:56.963Z,5.27
2018-08-13T04:15:24.714Z,5.57
2018-08-13T04:17:52.521Z,5.00
2018-08-13T04:20:20.333Z,5.97
2018-08-13T04:22:48.146Z,5.87
2018-08-13T04:25:15.961Z,5.43
2018-08-13T04:27:43.895Z,5.23
2018-08-13T04:30:13.554Z,5.60
2018-08-13T04:32:42.039Z,5.10
2018-08-13T04:35:09.810Z,4.67
2018-08-13T04:37:37.717Z,3.30
2018-08-13T04:40:06.792Z,3.80
2018-08-13T04:42:34.612Z,3.30
2018-08-13T04:45:02.417Z,2.67
2018-08-13T04:47:30.225Z,3.07
2018-08-13T04:49:58.026Z,2.40
2018-08-13T04:52:25.840Z,2.60
2018-08-13T04:54:53.641Z,2.47
2018-08-13T04:57:21.463Z,2.23
2018-08-13T04:59:49.298Z,2.30
2018-08-13T05:02:17.113Z,2.87
2018-08-13T05:04:44.913Z,2.57
2018-08-13T05:07:12.738Z,2.80
2018-08-13T05:09:40.542Z,2.73
2018-08-13T05:12:08.362Z,2.73
2018-08-13T05:14:36.181Z,3.03
2018-08-13T05:17:04.001Z,2.70
2018-08-13T05:19:31.805Z,2.60
2018-08-13T05:21:59.621Z,2.93
2018-08-13T05:24:27.430Z,2.60
2018-08-13T05:26:55.253Z,2.80
2018-08-13T05:29:23.061Z,2.80
2018-08-13T05:31:50.870Z,2.40
2018-08-13T05:34:18.699Z,2.30
2018-08-13T05:36:46.570Z,2.93
2018-08-13T05:39:14.374Z,2.63
2018-08-13T05:41:42.197Z,2.77
2018-08-13T05:44:10.005Z,2.60
2018-08-13T05:46:37.819Z,2.40
2018-08-13T05:49:05.629Z,2.57
2018-08-13T05:51:33.610Z,2.60
2018-08-13T05:54:01.479Z,2.60
2018-08-13T05:56:29.319Z,2.07
2018-08-13T05:58:57.125Z,2.43
2018-08-13T06:01:24.933Z,2.50
2018-08-13T06:03:52.737Z,2.43
2018-08-13T06:06:20.761Z,2.57
2018-08-13T06:08:48.609Z,2.57
2018-08-13T06:11:16.503Z,2.20
2018-08-13T06:13:44.310Z,2.60
2018-08-13T06:16:12.133Z,2.80
2018-08-13T06:18:39.942Z,2.27
2018-08-13T06:21:07.897Z,2.20
2018-08-13T06:23:35.714Z,2.33
2018-08-13T06:26:03.545Z,2.50
2018-08-13T06:28:31.686Z,2.13
2018-08-13T06:30:59.485Z,2.17
2018-08-13T06:33:27.337Z,2.20
2018-08-13T06:35:55.141Z,2.20
2018-08-13T06:38:22.953Z,2.00
2018-08-13T06:40:50.763Z,2.37
2018-08-13T06:43:18.624Z,2.37
2018-08-13T06:45:46.446Z,2.30
2018-08-13T06:48:14.265Z,1.80
2018-08-13T06:50:42.081Z,2.00
2018-08-13T06:53:09.885Z,2.20
2018-08-13T06:55:37.774Z,2.20
2018-08-13T06:58:05.678Z,2.23
2018-08-13T07:00:33.486Z,2.23
2018-08-13T07:03:01.296Z,2.00
2018-08-13T07:05:29.105Z,2.43
2018-08-13T07:07:56.921Z,2.50
2018-08-13T07:10:24.739Z,2.23
2018-08-13T07:12:52.554Z,2.70
2018-08-13T07:15:20.365Z,2.00
2018-08-13T07:17:48.178Z,2.03
2018-08-13T07:20:16.691Z,2.23
2018-08-13T07:22:44.764Z,2.00
2018-08-13T07:25:12.569Z,2.20
2018-08-13T07:27:41.102Z,2.07
2018-08-13T07:30:10.137Z,2.20
2018-08-13T07:32:37.957Z,2.20
2018-08-13T07:35:05.982Z,2.00
2018-08-13T07:37:33.813Z,2.07
2018-08-13T07:40:01.627Z,1.83
2018-08-13T07:42:29.706Z,1.90
2018-08-13T07:44:57.509Z,1.80
2018-08-13T07:47:25.329Z,1.77
2018-08-13T07:49:53.306Z,1.90
2018-08-13T07:52:21.113Z,1.87
2018-08-13T07:54:48.936Z,1.93
2018-08-13T07:57:16.741Z,1.73
2018-08-13T07:59:44.660Z,2.07
2018-08-13T08:02:12.489Z,1.93
2018-08-13T08:04:40.636Z,1.73
2018-08-13T08:07:08.508Z,1.70
2018-08-13T08:09:36.330Z,1.50
2018-08-13T08:12:04.409Z,1.90
2018-08-13T08:14:32.247Z,1.80
2018-08-13T08:17:00.038Z,1.83
2018-08-13T08:19:27.893Z,1.70
2018-08-13T08:21:55.697Z,1.77
2018-08-13T08:24:23.573Z,1.50
2018-08-13T08:26:51.383Z,1.80
2018-08-13T08:29:19.253Z,1.60
2018-08-13T08:31:47.022Z,1.73
2018-08-13T08:34:14.842Z,1.53
2018-08-13T08:36:42.642Z,2.03
2018-08-13T08:39:14.661Z,1.60
2018-08-13T08:41:43.157Z,1.97
2018-08-13T08:44:11.309Z,1.60
2018-08-13T08:46:39.553Z,1.80
2018-08-13T08:49:07.417Z,2.20
2018-08-13T08:51:35.664Z,1.73
2018-08-13T08:54:03.490Z,1.90
2018-08-13T08:56:31.329Z,2.10
2018-08-13T08:58:59.147Z,1.67
2018-08-13T09:01:26.954Z,1.80
2018-08-13T09:03:54.774Z,1.63
2018-08-13T09:06:22.605Z,1.80
2018-08-13T09:08:50.413Z,2.03
2018-08-13T09:11:18.221Z,2.30
2018-08-13T09:13:46.049Z,2.00
2018-08-13T09:16:13.990Z,1.33
2018-08-13T09:18:47.623Z,1.60
2018-08-13T09:21:21.203Z,2.10
2018-08-13T09:23:54.646Z,1.90
2018-08-13T09:26:28.109Z,1.60
2018-08-13T09:29:01.621Z,1.60
2018-08-13T09:31:35.013Z,1.73
2018-08-13T09:34:07.305Z,1.60
2018-08-13T09:36:35.181Z,2.53
2018-08-13T09:39:03.242Z,1.67
2018-08-13T09:41:31.053Z,1.67
2018-08-13T09:43:58.862Z,1.90
2018-08-13T09:46:26.681Z,1.97
2018-08-13T09:48:54.492Z,1.97
2018-08-13T09:51:22.306Z,1.80
2018-08-13T09:53:50.163Z,1.67
2018-08-13T09:56:17.933Z,2.17
2018-08-13T09:58:45.761Z,1.60
2018-08-13T10:01:13.569Z,1.80
2018-08-13T10:03:41.373Z,2.07
2018-08-13T10:06:09.201Z,1.60
2018-08-13T10:08:37.006Z,1.60
2018-08-13T10:11:04.822Z,1.90
2018-08-13T10:13:32.649Z,1.87
2018-08-13T10:16:00.467Z,1.50
2018-08-13T10:18:28.274Z,1.97
2018-08-13T10:20:56.090Z,1.70
2018-08-13T10:23:23.901Z,1.57
2018-08-13T10:25:51.717Z,1.57
2018-08-13T10:28:19.582Z,1.00
2018-08-13T10:30:47.411Z,1.10
2018-08-13T10:33:15.214Z,1.57
2018-08-13T10:35:43.030Z,1.17
2018-08-13T10:38:10.840Z,1.40
2018-08-13T10:40:38.649Z,2.00
2018-08-13T10:43:06.458Z,1.47
2018-08-13T10:45:34.269Z,1.40
2018-08-13T10:48:02.078Z,1.30
2018-08-13T10:50:29.893Z,1.37
2018-08-13T10:52:57.705Z,1.73
2018-08-13T10:55:25.521Z,1.40
2018-08-13T10:57:53.330Z,1.43
2018-08-13T11:00:21.141Z,1.60
2018-08-13T11:02:48.954Z,1.33
2018-08-13T11:05:16.793Z,1.70
2018-08-13T11:07:44.626Z,1.20
2018-08-13T11:10:12.989Z,1.63
2018-08-13T11:12:40.801Z,1.90
2018-08-13T11:15:10.650Z,1.50
2018-08-13T11:17:38.568Z,1.50
2018-08-13T11:20:06.898Z,1.50
2018-08-13T11:22:34.707Z,1.60
2018-08-13T11:25:02.505Z,1.60
2018-08-13T11:27:30.323Z,1.47
2018-08-13T11:29:58.125Z,1.30
2018-08-13T11:32:25.931Z,1.63
2018-08-13T11:34:53.826Z,1.70
2018-08-13T11:37:21.571Z,1.60
2018-08-13T11:39:49.373Z,1.90
2018-08-13T11:42:17.182Z,1.50
2018-08-13T11:44:44.977Z,1.50
2018-08-13T11:47:12.791Z,1.40
2018-08-13T11:49:40.585Z,1.93
2018-08-13T11:52:08.393Z,1.70
2018-08-13T11:54:36.194Z,1.70
2018-08-13T11:57:04.233Z,1.77
2018-08-13T11:59:32.033Z,1.80
2018-08-13T12:01:59.886Z,1.80
2018-08-13T12:04:27.649Z,2.03
2018-08-13T12:06:55.465Z,2.10
2018-08-13T12:09:23.353Z,1.70
2018-08-13T12:11:51.157Z,1.97
2018-08-13T12:14:19.085Z,1.50
2018-08-13T12:16:46.893Z,2.07
2018-08-13T12:19:14.693Z,1.80
2018-08-13T12:21:42.501Z,1.37
2018-08-13T12:24:10.297Z,1.50
2018-08-13T12:26:38.105Z,1.50
2018-08-13T12:29:05.909Z,1.90
2018-08-13T12:31:33.722Z,1.73
2018-08-13T12:34:01.542Z,1.53
2018-08-13T12:36:29.350Z,1.20
2018-08-13T12:38:57.154Z,1.80
2018-08-13T12:41:25.009Z,1.63
2018-08-13T12:43:52.826Z,1.50
2018-08-13T12:46:20.658Z,1.80
2018-08-13T12:48:48.478Z,1.70
2018-08-13T12:51:16.278Z,1.57
2018-08-13T12:53:44.085Z,1.73
2018-08-13T12:56:11.885Z,1.47
2018-08-13T12:58:39.702Z,1.30
2018-08-13T13:01:09.929Z,1.50
2018-08-13T13:03:37.865Z,1.53
2018-08-13T13:06:05.666Z,1.50
2018-08-13T13:08:33.497Z,1.67
2018-08-13T13:11:01.464Z,1.20
2018-08-13T13:13:29.284Z,1.23
2018-08-13T13:15:57.085Z,1.70
2018-08-13T13:18:25.214Z,1.53
2018-08-13T13:20:53.014Z,1.30
2018-08-13T13:23:20.813Z,1.20
2018-08-13T13:25:48.665Z,1.37
2018-08-13T13:28:16.438Z,1.43
2018-08-13T13:30:44.245Z,1.50
2018-08-13T13:33:12.045Z,1.40
2018-08-13T13:35:39.857Z,1.50
2018-08-13T13:38:08.465Z,1.30
2018-08-13T13:40:36.266Z,1.30
2018-08-13T13:43:04.112Z,1.87
2018-08-13T13:45:31.918Z,1.20
2018-08-13T13:47:59.738Z,1.60
2018-08-13T13:50:27.555Z,1.30
2018-08-13T13:52:55.365Z,1.73
2018-08-13T13:55:23.171Z,1.30
2018-08-13T13:57:51.084Z,1.60
2018-08-13T14:00:21.005Z,1.40
2018-08-13T14:02:49.756Z,1.90
2018-08-13T14:05:17.585Z,1.30
2018-08-13T14:07:45.547Z,1.67
2018-08-13T14:10:14.617Z,1.80
2018-08-13T14:12:42.925Z,1.37
2018-08-13T14:15:11.630Z,1.53
2018-08-13T14:17:39.503Z,1.60
2018-08-13T14:20:07.696Z,1.50
2018-08-13T14:22:35.561Z,1.40
2018-08-13T14:25:03.537Z,1.63
2018-08-13T14:27:31.347Z,1.30
2018-08-13T14:29:59.188Z,1.50
2018-08-13T14:32:27.017Z,2.10
2018-08-13T14:34:54.906Z,1.30
2018-08-13T14:37:22.710Z,1.63
2018-08-13T14:39:50.608Z,1.30
2018-08-13T14:42:18.533Z,1.70
2018-08-13T14:44:46.366Z,1.30
2018-08-13T14:47:14.179Z,1.70
2018-08-13T14:49:41.988Z,1.57
2018-08-13T14:52:09.798Z,1.40
2018-08-13T14:54:37.614Z,1.83
2018-08-13T14:57:05.421Z,1.67
2018-08-13T14:59:33.245Z,1.70
2018-08-13T15:02:01.057Z,1.60
2018-08-13T15:04:28.925Z,1.43
2018-08-13T15:06:56.729Z,1.43
2018-08-13T15:09:24.609Z,1.73
2018-08-13T15:11:52.414Z,1.63
2018-08-13T15:14:20.249Z,1.80
2018-08-13T15:16:48.062Z,1.60
2018-08-13T15:19:15.942Z,1.73
2018-08-13T15:21:43.710Z,2.00
2018-08-13T15:24:11.566Z,1.20
2018-08-13T15:26:39.371Z,1.13
2018-08-13T15:29:07.198Z,1.17
2018-08-13T15:31:35.013Z,1.40
2018-08-13T15:34:02.844Z,1.23
2018-08-13T15:36:30.653Z,1.30
2018-08-13T15:38:58.472Z,1.10
2018-08-13T15:41:26.272Z,1.03
2018-08-13T15:43:54.090Z,1.30
2018-08-13T15:46:21.906Z,1.40
2018-08-13T15:48:49.713Z,1.47
2018-08-13T15:51:17.520Z,1.70
2018-08-13T15:53:45.339Z,1.30
2018-08-13T15:56:13.149Z,1.60
2018-08-13T15:58:40.954Z,1.10
2018-08-13T16:01:08.765Z,1.60
2018-08-13T16:03:36.577Z,1.30
2018-08-13T16:06:04.397Z,1.70
2018-08-13T16:08:32.205Z,1.40
2018-08-13T16:11:00.010Z,1.30
2018-08-13T16:13:27.845Z,1.10
2018-08-13T16:15:55.659Z,1.63
2018-08-13T16:18:23.473Z,1.43
2018-08-13T16:20:51.298Z,1.77
2018-08-13T16:23:19.138Z,1.50
2018-08-13T16:25:46.949Z,1.90
2018-08-13T16:28:14.758Z,1.97
2018-08-13T16:30:42.572Z,1.53
2018-08-13T16:33:10.373Z,1.50
2018-08-13T16:35:38.198Z,1.80
2018-08-13T16:38:06.008Z,1.60
2018-08-13T16:40:33.817Z,1.80
2018-08-13T16:43:01.633Z,1.60
2018-08-13T16:45:29.453Z,1.97
2018-08-13T16:47:57.251Z,1.40
2018-08-13T16:50:26.030Z,2.20
2018-08-13T16:52:54.121Z,1.90
2018-08-13T16:55:21.953Z,1.73
2018-08-13T16:57:49.774Z,1.80
2018-08-13T17:00:18.761Z,1.90
2018-08-13T17:02:46.570Z,1.97
2018-08-13T17:05:14.381Z,1.70
2018-08-13T17:07:42.865Z,1.40
2018-08-13T17:10:13.042Z,1.53
2018-08-13T17:12:40.845Z,1.37
2018-08-13T17:15:09.062Z,1.70
2018-08-13T17:17:37.026Z,1.50
2018-08-13T17:20:05.137Z,1.87
2018-08-13T17:22:32.973Z,1.50
2018-08-13T17:25:00.904Z,1.40
2018-08-13T17:27:28.589Z,1.83
2018-08-13T17:29:56.418Z,1.20
2018-08-13T17:32:24.239Z,1.70
2018-08-13T17:34:52.093Z,1.60
2018-08-13T17:37:19.993Z,1.60
2018-08-13T17:39:47.810Z,1.20
2018-08-13T17:42:15.616Z,1.70
2018-08-13T17:44:43.428Z,1.60
2018-08-13T17:47:11.238Z,1.90
2018-08-13T17:49:39.066Z,1.20
2018-08-13T17:52:06.873Z,1.00
2018-08-13T17:54:34.734Z,1.63
2018-08-13T17:57:02.617Z,1.20
2018-08-13T17:59:30.421Z,1.17
2018-08-13T18:01:58.297Z,1.67
2018-08-13T18:04:26.045Z,1.67
2018-08-13T18:06:53.862Z,1.53
2018-08-13T18:09:21.671Z,1.40
2018-08-13T18:11:49.481Z,1.57
2018-08-13T18:14:17.299Z,1.60
2018-08-13T18:16:45.114Z,1.50
2018-08-13T18:19:12.915Z,1.50
2018-08-13T18:21:40.985Z,1.57
2018-08-13T18:24:08.793Z,1.37
2018-08-13T18:26:36.618Z,1.47
2018-08-13T18:29:04.443Z,1.50
2018-08-13T18:31:32.481Z,1.53
2018-08-13T18:34:00.295Z,1.47
2018-08-13T18:36:28.110Z,1.60
2018-08-13T18:38:55.914Z,1.70
2018-08-13T18:41:23.731Z,1.30
2018-08-13T18:43:51.541Z,1.10
2018-08-13T18:46:19.535Z,1.30
2018-08-13T18:48:47.430Z,1.50
2018-08-13T18:51:15.309Z,1.70
2018-08-13T18:53:43.241Z,1.70
2018-08-13T18:56:10.993Z,1.67
2018-08-13T18:58:38.806Z,1.70
2018-08-13T19:01:06.681Z,1.50
2018-08-13T19:03:34.578Z,1.87
2018-08-13T19:06:02.428Z,1.50
2018-08-13T19:08:30.298Z,1.67
2018-08-13T19:10:58.118Z,1.63
2018-08-13T19:13:26.135Z,1.80
2018-08-13T19:15:54.014Z,1.40
2018-08-13T19:18:21.926Z,2.33
2018-08-13T19:20:49.713Z,1.77
2018-08-13T19:23:17.607Z,1.50
2018-08-13T19:25:45.462Z,1.77
2018-08-13T19:28:13.347Z,1.90
2018-08-13T19:30:41.157Z,1.60
2018-08-13T19:33:08.982Z,1.63
2018-08-13T19:35:36.799Z,1.90
2018-08-13T19:38:04.610Z,2.00
2018-08-13T19:40:32.561Z,1.80
2018-08-13T19:43:00.361Z,1.80
2018-08-13T19:45:28.170Z,1.50
2018-08-13T19:47:55.994Z,1.90
2018-08-13T19:50:23.805Z,1.70
2018-08-13T19:52:51.992Z,1.67
2018-08-13T19:55:19.896Z,2.00
2018-08-13T19:57:47.713Z,1.80
2018-08-13T20:00:16.990Z,2.00
2018-08-13T20:02:45.094Z,2.00
2018-08-13T20:05:12.897Z,1.73
2018-08-13T20:07:40.790Z,2.03
2018-08-13T20:10:09.686Z,2.30
2018-08-13T20:12:37.564Z,1.70
2018-08-13T20:15:05.621Z,1.80
2018-08-13T20:17:33.434Z,1.70
2018-08-13T20:20:01.242Z,2.10
2018-08-13T20:22:29.073Z,1.63
2018-08-13T20:24:56.873Z,1.70
2018-08-13T20:27:24.681Z,1.80
2018-08-13T20:29:53.018Z,2.30
2018-08-13T20:32:20.878Z,1.40
2018-08-13T20:34:48.851Z,2.10
2018-08-13T20:37:16.939Z,1.60
2018-08-13T20:39:44.858Z,1.60
2018-08-13T20:42:12.761Z,1.90
2018-08-13T20:44:40.660Z,1.67
2018-08-13T20:47:08.497Z,1.80
2018-08-13T20:49:36.301Z,1.60
2018-08-13T20:52:04.410Z,1.70
2018-08-13T20:54:32.238Z,1.87
2018-08-13T20:57:00.058Z,1.93
2018-08-13T20:59:27.867Z,2.00
2018-08-13T21:01:55.712Z,1.80
2018-08-13T21:04:23.553Z,1.63
2018-08-13T21:06:51.405Z,1.80
2018-08-13T21:09:19.377Z,1.93
2018-08-13T21:11:47.189Z,1.90
2018-08-13T21:14:15.086Z,1.37
2018-08-13T21:16:42.933Z,1.70
2018-08-13T21:19:10.758Z,1.90
2018-08-13T21:21:38.578Z,2.00
2018-08-13T21:24:06.612Z,1.97
2018-08-13T21:26:34.782Z,2.07
2018-08-13T21:29:02.669Z,2.00
2018-08-13T21:31:30.530Z,2.30
2018-08-13T21:33:58.583Z,2.07
2018-08-13T21:36:26.469Z,1.93
2018-08-13T21:38:54.282Z,2.20
2018-08-13T21:41:22.094Z,1.73
2018-08-13T21:43:49.921Z,2.10
2018-08-13T21:46:17.738Z,1.83
2018-08-13T21:48:45.557Z,1.60
2018-08-13T21:51:13.368Z,2.57
2018-08-13T21:53:41.233Z,2.13
2018-08-13T21:56:09.037Z,2.60
2018-08-13T21:58:36.849Z,2.20
2018-08-13T22:01:10.253Z,1.90
2018-08-13T22:03:38.385Z,2.30
2018-08-13T22:06:06.294Z,2.10
2018-08-13T22:08:34.458Z,2.43
2018-08-13T22:11:02.369Z,2.70
2018-08-13T22:13:30.360Z,2.57
2018-08-13T22:15:58.351Z,1.87
2018-08-13T22:18:26.509Z,2.40
2018-08-13T22:20:54.363Z,2.23
2018-08-13T22:23:22.199Z,2.40
2018-08-13T22:25:50.080Z,2.37
2018-08-13T22:28:18.131Z,2.60
2018-08-13T22:30:46.190Z,2.47
2018-08-13T22:33:14.002Z,2.83
2018-08-13T22:35:41.868Z,2.83
2018-08-13T22:38:09.834Z,2.80
2018-08-13T22:40:37.976Z,2.30
2018-08-13T22:43:06.140Z,2.37
2018-08-13T22:45:33.937Z,2.80
2018-08-13T22:48:01.754Z,3.40
2018-08-13T22:50:29.558Z,2.23
2018-08-13T22:52:57.371Z,2.83
2018-08-13T22:55:25.184Z,2.60
2018-08-13T22:57:52.982Z,2.70
2018-08-13T23:00:21.245Z,2.63
2018-08-13T23:02:49.989Z,2.60
2018-08-13T23:05:20.649Z,2.67
2018-08-13T23:07:48.478Z,3.17
2018-08-13T23:10:17.181Z,2.97
2018-08-13T23:12:45.694Z,2.50
2018-08-13T23:15:14.589Z,3.20
2018-08-13T23:17:42.958Z,3.20
2018-08-13T23:20:12.621Z,2.60
2018-08-13T23:22:44.730Z,3.10
2018-08-13T23:25:12.543Z,2.50
2018-08-13T23:27:40.718Z,3.37
2018-08-13T23:30:08.725Z,3.13
2018-08-13T23:32:36.530Z,3.50
2018-08-13T23:35:04.493Z,3.40
2018-08-13T23:37:32.314Z,3.00
2018-08-13T23:40:00.131Z,3.00
2018-08-13T23:42:27.927Z,3.10
2018-08-13T23:44:55.737Z,3.03
2018-08-13T23:47:23.542Z,3.27
2018-08-13T23:49:51.366Z,3.03
2018-08-13T23:52:19.164Z,3.90
2018-08-13T23:54:46.990Z,3.67
2018-08-13T23:57:14.797Z,3.60
2018-08-13T23:59:42.610Z,3.37
